createdAt,value
2023-03-29T00:01:06.815Z,-4.37
2023-03-29T00:03:35.228Z,-4.35
2023-03-29T00:06:04.082Z,-4.30
2023-03-29T00:08:38.183Z,-4.29
2023-03-29T00:11:06.518Z,-4.29
2023-03-29T00:13:35.784Z,-4.32
2023-03-29T00:16:04.112Z,-4.33
2023-03-29T00:18:32.433Z,-4.36
2023-03-29T00:21:01.013Z,-4.36
2023-03-29T00:23:29.414Z,-4.36
2023-03-29T00:25:57.794Z,-4.37
2023-03-29T00:28:26.185Z,-4.39
2023-03-29T00:31:04.555Z,-4.42
2023-03-29T00:33:33.507Z,-4.43
2023-03-29T00:36:02.227Z,-4.45
2023-03-29T00:38:31.548Z,-4.47
2023-03-29T00:41:00.633Z,-4.51
2023-03-29T00:43:28.945Z,-4.53
2023-03-29T00:45:57.170Z,-4.55
2023-03-29T00:48:30.282Z,-4.58
2023-03-29T00:51:08.216Z,-4.63
2023-03-29T00:53:43.512Z,-4.70
2023-03-29T00:56:17.796Z,-4.75
2023-03-29T00:58:59.287Z,-4.78
2023-03-29T01:01:45.046Z,-4.78
2023-03-29T01:04:19.545Z,-4.75
2023-03-29T01:06:59.296Z,-4.71
2023-03-29T01:09:30.530Z,-4.66
2023-03-29T01:12:03.562Z,-4.61
2023-03-29T01:14:39.077Z,-4.59
2023-03-29T01:17:08.219Z,-4.61
2023-03-29T01:19:44.513Z,-4.64
2023-03-29T01:22:51.592Z,-4.73
2023-03-29T01:25:37.074Z,-4.90
2023-03-29T01:28:34.587Z,-5.04
2023-03-29T01:31:11.261Z,-5.18
2023-03-29T01:33:44.019Z,-5.33
2023-03-29T01:36:38.564Z,-5.44
2023-03-29T01:39:08.022Z,-5.55
2023-03-29T01:42:00.237Z,-5.63
2023-03-29T01:44:49.636Z,-5.71
2023-03-29T01:48:26.272Z,-5.77
2023-03-29T01:51:01.669Z,-5.86
2023-03-29T01:53:48.490Z,-5.91
2023-03-29T01:56:24.944Z,-5.96
2023-03-29T01:59:07.992Z,-6.01
2023-03-29T02:01:42.637Z,-6.06
2023-03-29T02:04:14.505Z,-6.10
2023-03-29T02:06:43.564Z,-6.13
2023-03-29T02:09:12.804Z,-6.16
2023-03-29T02:11:43.697Z,-6.19
2023-03-29T02:14:11.849Z,-6.21
2023-03-29T02:16:40.645Z,-6.19
2023-03-29T02:19:10.055Z,-6.14
2023-03-29T02:21:48.570Z,-6.06
2023-03-29T02:24:20.553Z,-6.01
2023-03-29T02:26:49.516Z,-5.99
2023-03-29T02:29:17.788Z,-5.97
2023-03-29T02:32:24.820Z,-5.96
2023-03-29T02:34:53.003Z,-5.96
2023-03-29T02:37:26.765Z,-5.97
2023-03-29T02:39:58.884Z,-5.97
2023-03-29T02:42:28.704Z,-5.97
2023-03-29T02:45:00.717Z,-5.96
2023-03-29T02:47:35.810Z,-5.97
2023-03-29T02:50:05.128Z,-5.98
2023-03-29T02:52:39.408Z,-5.99
2023-03-29T02:55:14.751Z,-6.00
2023-03-29T02:57:44.081Z,-6.01
2023-03-29T03:00:14.731Z,-6.03
2023-03-29T03:02:43.153Z,-6.04
2023-03-29T03:05:11.955Z,-6.05
2023-03-29T03:07:40.769Z,-6.06
2023-03-29T03:10:10.529Z,-6.06
2023-03-29T03:12:39.093Z,-6.07
2023-03-29T03:15:08.175Z,-6.09
2023-03-29T03:17:40.358Z,-6.11
2023-03-29T03:20:13.323Z,-6.15
2023-03-29T03:22:45.724Z,-6.18
2023-03-29T03:25:14.720Z,-6.21
2023-03-29T03:27:43.872Z,-6.26
2023-03-29T03:30:12.884Z,-6.30
2023-03-29T03:32:59.561Z,-6.29
2023-03-29T03:35:49.404Z,-6.26
2023-03-29T03:38:18.413Z,-6.23
2023-03-29T03:40:56.337Z,-6.19
2023-03-29T03:43:25.355Z,-6.13
2023-03-29T03:45:54.052Z,-6.08
2023-03-29T03:48:25.590Z,-6.03
2023-03-29T03:51:06.888Z,-5.98
2023-03-29T03:53:36.687Z,-5.96
2023-03-29T03:56:30.011Z,-5.87
2023-03-29T03:58:58.321Z,-5.82
2023-03-29T04:01:28.331Z,-5.82
2023-03-29T04:04:03.486Z,-5.85
2023-03-29T04:06:32.799Z,-5.76
2023-03-29T04:09:33.860Z,-5.55
2023-03-29T04:12:21.357Z,-5.32
2023-03-29T04:14:51.045Z,-5.15
2023-03-29T04:17:23.758Z,-4.99
2023-03-29T04:19:58.379Z,-4.87
2023-03-29T04:22:28.163Z,-4.90
2023-03-29T04:24:56.307Z,-4.96
2023-03-29T04:27:37.132Z,-5.01
2023-03-29T04:30:11.524Z,-5.05
2023-03-29T04:33:02.923Z,-5.08
2023-03-29T04:35:31.766Z,-5.12
2023-03-29T04:38:00.111Z,-5.18
2023-03-29T04:40:29.613Z,-5.26
2023-03-29T04:43:18.409Z,-5.33
2023-03-29T04:45:56.792Z,-5.34
2023-03-29T04:48:57.554Z,-5.37
2023-03-29T04:51:34.223Z,-5.40
2023-03-29T04:54:03.908Z,-5.41
2023-03-29T04:56:33.915Z,-5.34
2023-03-29T04:59:40.564Z,-5.31
2023-03-29T05:02:21.246Z,-5.27
2023-03-29T05:04:50.631Z,-5.26
2023-03-29T05:07:20.012Z,-5.22
2023-03-29T05:09:48.654Z,-5.11
2023-03-29T05:12:17.360Z,-5.00
2023-03-29T05:14:53.530Z,-4.93
2023-03-29T05:17:24.177Z,-4.82
2023-03-29T05:19:52.763Z,-4.73
2023-03-29T05:22:22.004Z,-4.70
2023-03-29T05:24:51.527Z,-4.66
2023-03-29T05:27:24.026Z,-4.65
2023-03-29T05:30:01.974Z,-4.56
2023-03-29T05:32:50.536Z,-4.43
2023-03-29T05:35:23.830Z,-4.39
2023-03-29T05:37:52.340Z,-4.36
2023-03-29T05:40:20.602Z,-4.32
2023-03-29T05:43:27.973Z,-4.38
2023-03-29T05:45:56.963Z,-4.43
2023-03-29T05:48:27.208Z,-4.54
2023-03-29T05:50:57.885Z,-4.62
2023-03-29T05:53:28.876Z,-4.70
2023-03-29T05:55:57.121Z,-4.84
2023-03-29T05:58:26.703Z,-4.85
2023-03-29T06:00:55.531Z,-4.94
2023-03-29T06:03:36.984Z,-4.97
2023-03-29T06:06:07.405Z,-4.90
2023-03-29T06:08:36.405Z,-4.86
2023-03-29T06:11:11.974Z,-4.93
2023-03-29T06:13:59.358Z,-4.90
2023-03-29T06:16:29.135Z,-4.84
2023-03-29T06:18:57.392Z,-4.77
2023-03-29T06:21:28.337Z,-4.75
2023-03-29T06:23:56.874Z,-4.74
2023-03-29T06:26:27.877Z,-4.72
2023-03-29T06:28:56.540Z,-4.69
2023-03-29T06:31:25.514Z,-4.66
2023-03-29T06:33:54.094Z,-4.55
2023-03-29T06:36:46.105Z,-4.24
2023-03-29T06:39:14.930Z,-3.74
2023-03-29T06:42:20.693Z,-3.35
2023-03-29T06:45:10.577Z,-3.07
2023-03-29T06:47:39.921Z,-2.87
2023-03-29T06:50:09.536Z,-2.68
2023-03-29T06:53:04.564Z,-2.52
2023-03-29T06:55:32.965Z,-2.48
2023-03-29T06:58:04.556Z,-2.34
2023-03-29T07:00:35.763Z,-1.93
2023-03-29T07:03:20.183Z,-1.61
2023-03-29T07:05:52.206Z,-1.53
2023-03-29T07:08:22.670Z,-1.56
2023-03-29T07:11:05.870Z,-1.29
2023-03-29T07:14:03.535Z,-0.16
2023-03-29T07:16:32.768Z,0.74
2023-03-29T07:19:27.393Z,1.68
2023-03-29T07:21:56.216Z,2.45
2023-03-29T07:24:42.750Z,3.40
2023-03-29T07:27:11.125Z,4.01
2023-03-29T07:29:39.450Z,4.75
2023-03-29T07:32:07.550Z,4.73
2023-03-29T07:34:52.723Z,5.25
2023-03-29T07:37:25.193Z,5.29
2023-03-29T07:39:53.832Z,5.44
2023-03-29T07:42:44.526Z,5.53
2023-03-29T07:45:16.485Z,5.67
2023-03-29T07:47:58.525Z,5.50
2023-03-29T07:50:28.372Z,4.70
2023-03-29T07:53:00.927Z,4.05
2023-03-29T07:55:29.414Z,3.49
2023-03-29T07:58:09.232Z,2.88
2023-03-29T08:00:38.279Z,2.32
2023-03-29T08:03:25.363Z,2.08
2023-03-29T08:05:53.833Z,1.67
2023-03-29T08:08:22.521Z,1.52
2023-03-29T08:10:55.046Z,1.33
2023-03-29T08:13:42.788Z,1.34
2023-03-29T08:16:22.911Z,1.39
2023-03-29T08:18:57.004Z,1.31
2023-03-29T08:21:26.724Z,1.52
2023-03-29T08:23:54.966Z,1.75
2023-03-29T08:26:28.172Z,2.27
2023-03-29T08:28:56.876Z,2.80
2023-03-29T08:31:25.376Z,3.58
2023-03-29T08:33:53.546Z,4.14
2023-03-29T08:36:53.134Z,4.77
2023-03-29T08:39:27.804Z,5.42
2023-03-29T08:42:42.136Z,5.89
2023-03-29T08:45:35.529Z,6.07
2023-03-29T08:48:22.702Z,6.13
2023-03-29T08:51:06.084Z,6.43
2023-03-29T08:53:35.565Z,6.70
2023-03-29T08:56:26.582Z,6.62
2023-03-29T08:58:57.225Z,6.49
2023-03-29T09:01:34.505Z,6.29
2023-03-29T09:04:03.296Z,5.92
2023-03-29T09:06:44.395Z,5.58
2023-03-29T09:09:21.910Z,5.47
2023-03-29T09:12:09.545Z,5.42
2023-03-29T09:14:48.696Z,5.81
2023-03-29T09:17:44.688Z,5.53
2023-03-29T09:20:18.399Z,5.04
2023-03-29T09:22:49.684Z,4.61
2023-03-29T09:25:50.741Z,4.23
2023-03-29T09:28:38.450Z,3.93
2023-03-29T09:31:16.860Z,3.63
2023-03-29T09:33:58.749Z,3.02
2023-03-29T09:36:51.369Z,2.20
2023-03-29T09:39:22.304Z,1.96
2023-03-29T09:42:04.367Z,1.49
2023-03-29T09:44:45.837Z,1.19
2023-03-29T09:47:23.944Z,1.25
2023-03-29T09:49:58.504Z,1.32
2023-03-29T09:52:26.697Z,1.69
2023-03-29T09:55:04.308Z,2.27
2023-03-29T09:57:52.065Z,2.97
2023-03-29T10:00:20.765Z,3.21
2023-03-29T10:02:58.994Z,3.10
2023-03-29T10:05:37.321Z,2.86
2023-03-29T10:08:27.977Z,2.24
2023-03-29T10:11:00.198Z,2.26
2023-03-29T10:13:31.668Z,2.33
2023-03-29T10:16:07.581Z,1.63
2023-03-29T10:18:45.196Z,1.45
2023-03-29T10:21:15.962Z,1.09
2023-03-29T10:23:44.717Z,0.80
2023-03-29T10:26:33.989Z,0.44
2023-03-29T10:29:04.671Z,0.20
2023-03-29T10:31:34.113Z,-0.03
2023-03-29T10:34:06.545Z,-0.21
2023-03-29T10:36:35.619Z,-0.45
2023-03-29T10:39:06.156Z,-0.58
2023-03-29T10:41:36.058Z,-0.71
2023-03-29T10:44:05.166Z,-0.84
2023-03-29T10:46:44.161Z,-0.89
2023-03-29T10:49:19.643Z,-0.78
2023-03-29T10:51:49.843Z,-0.27
2023-03-29T10:54:22.033Z,0.02
2023-03-29T10:56:57.116Z,0.16
2023-03-29T10:59:44.400Z,0.31
2023-03-29T11:02:15.678Z,0.70
2023-03-29T11:05:12.583Z,1.25
2023-03-29T11:08:11.466Z,1.29
2023-03-29T11:10:46.117Z,1.29
2023-03-29T11:13:14.365Z,1.22
2023-03-29T11:15:45.557Z,0.90
2023-03-29T11:18:37.922Z,0.70
2023-03-29T11:21:15.388Z,0.76
2023-03-29T11:24:02.102Z,0.86
2023-03-29T11:26:45.499Z,0.73
2023-03-29T11:29:33.878Z,0.60
2023-03-29T11:32:29.595Z,0.46
2023-03-29T11:35:45.453Z,0.29
2023-03-29T11:38:17.547Z,0.04
2023-03-29T11:40:50.841Z,-0.13
2023-03-29T11:43:28.230Z,-0.19
2023-03-29T11:46:09.130Z,-0.22
2023-03-29T11:49:00.489Z,-0.34
2023-03-29T11:51:56.999Z,-0.33
2023-03-29T11:54:41.453Z,-0.39
2023-03-29T11:57:23.824Z,-0.40
2023-03-29T12:00:07.101Z,-0.35
2023-03-29T12:03:03.201Z,-0.32
2023-03-29T12:05:36.787Z,-0.32
2023-03-29T12:08:13.352Z,-0.33
2023-03-29T12:10:46.456Z,-0.08
2023-03-29T12:13:14.520Z,0.24
2023-03-29T12:15:52.851Z,0.46
2023-03-29T12:18:30.518Z,0.60
2023-03-29T12:21:08.866Z,0.73
2023-03-29T12:23:37.347Z,0.66
2023-03-29T12:26:42.592Z,0.55
2023-03-29T12:29:16.581Z,0.54
2023-03-29T12:31:53.727Z,0.53
2023-03-29T12:34:41.765Z,0.47
2023-03-29T12:37:36.067Z,0.30
2023-03-29T12:40:42.343Z,0.06
2023-03-29T12:43:48.826Z,0.00
2023-03-29T12:46:47.334Z,-0.06
2023-03-29T12:49:28.235Z,-0.18
2023-03-29T12:51:59.369Z,-0.32
2023-03-29T12:54:31.373Z,-0.58
2023-03-29T12:57:26.501Z,-0.75
2023-03-29T12:59:55.233Z,-0.84
2023-03-29T13:02:23.526Z,-0.88
2023-03-29T13:04:55.316Z,-0.92
2023-03-29T13:07:23.617Z,-1.10
2023-03-29T13:10:03.031Z,-1.07
2023-03-29T13:12:42.530Z,-1.01
2023-03-29T13:15:17.044Z,-1.00
2023-03-29T13:18:04.288Z,-1.04
2023-03-29T13:20:45.721Z,-1.12
2023-03-29T13:23:31.933Z,-1.19
2023-03-29T13:26:08.244Z,-1.36
2023-03-29T13:29:00.975Z,-1.40
2023-03-29T13:31:38.575Z,-1.40
2023-03-29T13:34:29.013Z,-1.38
2023-03-29T13:36:59.993Z,-1.43
2023-03-29T13:39:32.025Z,-1.48
2023-03-29T13:42:37.493Z,-1.50
2023-03-29T13:45:23.907Z,-1.57
2023-03-29T13:48:20.095Z,-1.59
2023-03-29T13:51:08.281Z,-1.80
2023-03-29T13:53:45.856Z,-1.95
2023-03-29T13:56:23.514Z,-1.99
2023-03-29T13:58:58.244Z,-2.04
2023-03-29T14:02:11.700Z,-2.04
2023-03-29T14:04:46.311Z,-2.14
2023-03-29T14:07:15.722Z,-2.22
2023-03-29T14:09:48.102Z,-2.21
2023-03-29T14:12:17.854Z,-2.23
2023-03-29T14:14:58.289Z,-2.23
2023-03-29T14:17:28.342Z,-2.25
2023-03-29T14:20:01.610Z,-2.23
2023-03-29T14:22:33.211Z,-2.23
2023-03-29T14:25:06.495Z,-2.23
2023-03-29T14:27:37.227Z,-2.25
2023-03-29T14:30:27.599Z,-2.27
2023-03-29T14:32:56.941Z,-2.20
2023-03-29T14:35:33.506Z,-2.15
2023-03-29T14:38:02.525Z,-2.14
2023-03-29T14:40:31.541Z,-2.11
2023-03-29T14:43:06.822Z,-2.11
2023-03-29T14:45:35.940Z,-2.09
2023-03-29T14:48:04.977Z,-2.07
2023-03-29T14:50:33.533Z,-2.01
2023-03-29T14:53:01.983Z,-2.00
2023-03-29T14:55:31.104Z,-2.02
2023-03-29T14:58:00.636Z,-1.99
2023-03-29T15:00:40.053Z,-1.92
2023-03-29T15:03:15.026Z,-1.92
2023-03-29T15:05:57.802Z,-1.93
2023-03-29T15:08:30.967Z,-1.92
2023-03-29T15:10:59.924Z,-1.92
2023-03-29T15:13:28.807Z,-1.94
2023-03-29T15:16:00.529Z,-1.93
2023-03-29T15:18:35.159Z,-1.94
2023-03-29T15:21:04.734Z,-1.89
2023-03-29T15:23:39.563Z,-1.87
2023-03-29T15:26:27.072Z,-1.84
2023-03-29T15:29:03.191Z,-1.84
2023-03-29T15:31:37.106Z,-1.88
2023-03-29T15:34:09.530Z,-1.87
2023-03-29T15:36:43.340Z,-1.92
2023-03-29T15:39:16.302Z,-1.93
2023-03-29T15:41:46.831Z,-1.93
2023-03-29T15:44:22.794Z,-1.97
2023-03-29T15:46:51.153Z,-1.94
2023-03-29T15:49:19.422Z,-1.94
2023-03-29T15:51:47.782Z,-1.98
2023-03-29T15:54:16.091Z,-2.04
2023-03-29T15:56:57.234Z,-2.08
2023-03-29T15:59:25.974Z,-2.16
2023-03-29T16:01:54.860Z,-2.20
2023-03-29T16:04:23.259Z,-2.27
2023-03-29T16:06:53.696Z,-2.31
2023-03-29T16:09:23.316Z,-2.39
2023-03-29T16:11:51.642Z,-2.46
2023-03-29T16:14:27.513Z,-2.52
2023-03-29T16:16:57.317Z,-2.65
2023-03-29T16:19:27.002Z,-2.76
2023-03-29T16:21:55.847Z,-2.85
2023-03-29T16:24:27.215Z,-2.94
2023-03-29T16:26:56.597Z,-3.03
2023-03-29T16:29:25.753Z,-3.17
2023-03-29T16:31:54.471Z,-3.26
2023-03-29T16:34:23.432Z,-3.37
2023-03-29T16:36:53.179Z,-3.44
2023-03-29T16:39:21.612Z,-3.53
2023-03-29T16:41:50.469Z,-3.61
2023-03-29T16:44:23.902Z,-3.72
2023-03-29T16:46:58.171Z,-3.79
2023-03-29T16:49:26.610Z,-3.87
2023-03-29T16:51:57.723Z,-3.96
2023-03-29T16:54:29.816Z,-4.04
2023-03-29T16:56:58.164Z,-4.12
2023-03-29T16:59:27.212Z,-4.21
2023-03-29T17:01:55.519Z,-4.28
2023-03-29T17:04:23.981Z,-4.35
2023-03-29T17:06:52.284Z,-4.41
2023-03-29T17:09:21.195Z,-4.47
2023-03-29T17:11:49.644Z,-4.52
2023-03-29T17:14:17.926Z,-4.58
2023-03-29T17:16:46.631Z,-4.63
2023-03-29T17:19:16.409Z,-4.69
2023-03-29T17:21:47.889Z,-4.74
2023-03-29T17:24:16.086Z,-4.78
2023-03-29T17:26:45.896Z,-4.80
2023-03-29T17:29:14.303Z,-4.84
2023-03-29T17:31:47.929Z,-4.90
2023-03-29T17:34:19.187Z,-4.94
2023-03-29T17:36:47.436Z,-5.00
2023-03-29T17:39:15.958Z,-5.05
2023-03-29T17:41:44.212Z,-5.11
2023-03-29T17:44:12.425Z,-5.16
2023-03-29T17:46:47.876Z,-5.20
2023-03-29T17:49:16.192Z,-5.26
2023-03-29T17:51:44.359Z,-5.31
2023-03-29T17:54:12.733Z,-5.34
2023-03-29T17:56:41.019Z,-5.37
2023-03-29T17:59:09.453Z,-5.41
2023-03-29T18:01:39.257Z,-5.46
2023-03-29T18:04:07.925Z,-5.49
2023-03-29T18:06:36.550Z,-5.52
2023-03-29T18:09:06.913Z,-5.55
2023-03-29T18:11:36.573Z,-5.58
2023-03-29T18:14:05.515Z,-5.61
2023-03-29T18:16:34.231Z,-5.64
2023-03-29T18:19:02.565Z,-5.69
2023-03-29T18:21:31.106Z,-5.72
2023-03-29T18:23:59.586Z,-5.73
2023-03-29T18:26:30.133Z,-5.76
2023-03-29T18:28:58.464Z,-5.79
2023-03-29T18:31:28.214Z,-5.82
2023-03-29T18:33:56.784Z,-5.85
2023-03-29T18:36:29.284Z,-5.90
2023-03-29T18:39:05.081Z,-5.95
2023-03-29T18:41:35.758Z,-5.98
2023-03-29T18:44:05.002Z,-6.02
2023-03-29T18:46:33.451Z,-6.03
2023-03-29T18:49:02.688Z,-6.06
2023-03-29T18:51:37.795Z,-6.08
2023-03-29T18:54:06.281Z,-6.10
2023-03-29T18:56:35.549Z,-6.12
2023-03-29T18:59:07.021Z,-6.15
2023-03-29T19:01:36.009Z,-6.19
2023-03-29T19:04:04.537Z,-6.22
2023-03-29T19:06:32.711Z,-6.24
2023-03-29T19:09:02.363Z,-6.27
2023-03-29T19:11:31.316Z,-6.27
2023-03-29T19:13:59.540Z,-6.23
2023-03-29T19:16:28.010Z,-6.16
2023-03-29T19:18:56.273Z,-6.10
2023-03-29T19:21:24.446Z,-6.04
2023-03-29T19:23:53.196Z,-5.98
2023-03-29T19:26:21.911Z,-5.93
2023-03-29T19:28:53.043Z,-5.85
2023-03-29T19:31:21.523Z,-5.77
2023-03-29T19:33:49.919Z,-5.71
2023-03-29T19:36:18.568Z,-5.63
2023-03-29T19:38:46.825Z,-5.58
2023-03-29T19:41:15.029Z,-5.57
2023-03-29T19:43:43.567Z,-5.57
2023-03-29T19:46:12.943Z,-5.62
2023-03-29T19:48:41.931Z,-5.65
2023-03-29T19:51:10.147Z,-5.72
2023-03-29T19:53:39.878Z,-5.81
2023-03-29T19:56:11.167Z,-5.87
2023-03-29T19:58:39.599Z,-5.99
2023-03-29T20:01:07.908Z,-6.09
2023-03-29T20:03:36.294Z,-6.17
2023-03-29T20:06:04.829Z,-6.27
2023-03-29T20:08:32.977Z,-6.37
2023-03-29T20:11:04.614Z,-6.44
2023-03-29T20:13:38.703Z,-6.52
2023-03-29T20:16:09.707Z,-6.61
2023-03-29T20:18:41.050Z,-6.69
2023-03-29T20:21:09.906Z,-6.75
2023-03-29T20:23:38.071Z,-6.77
2023-03-29T20:26:07.673Z,-6.78
2023-03-29T20:28:37.851Z,-6.79
2023-03-29T20:31:09.156Z,-6.79
2023-03-29T20:33:37.869Z,-6.78
2023-03-29T20:36:06.734Z,-6.73
2023-03-29T20:38:35.920Z,-6.70
2023-03-29T20:41:05.638Z,-6.65
2023-03-29T20:43:37.838Z,-6.65
2023-03-29T20:46:29.218Z,-6.61
2023-03-29T20:48:57.320Z,-6.53
2023-03-29T20:51:28.337Z,-6.51
2023-03-29T20:54:05.006Z,-6.48
2023-03-29T20:56:37.437Z,-6.47
2023-03-29T20:59:10.658Z,-6.49
2023-03-29T21:01:40.983Z,-6.54
2023-03-29T21:04:11.044Z,-6.56
2023-03-29T21:06:39.744Z,-6.65
2023-03-29T21:09:07.849Z,-6.73
2023-03-29T21:11:36.205Z,-6.84
2023-03-29T21:14:04.674Z,-6.96
2023-03-29T21:16:32.894Z,-7.05
2023-03-29T21:19:01.639Z,-7.15
2023-03-29T21:21:29.847Z,-7.27
2023-03-29T21:23:58.032Z,-7.40
2023-03-29T21:26:27.202Z,-7.52
2023-03-29T21:28:55.405Z,-7.62
2023-03-29T21:31:23.532Z,-7.66
2023-03-29T21:33:53.188Z,-7.67
2023-03-29T21:36:21.333Z,-7.67
2023-03-29T21:38:50.142Z,-7.67
2023-03-29T21:41:18.964Z,-7.64
2023-03-29T21:43:47.292Z,-7.57
2023-03-29T21:46:16.042Z,-7.48
2023-03-29T21:48:44.370Z,-7.42
2023-03-29T21:51:12.534Z,-7.39
2023-03-29T21:53:40.667Z,-7.36
2023-03-29T21:56:09.177Z,-7.29
2023-03-29T21:58:37.339Z,-7.19
2023-03-29T22:01:07.485Z,-7.16
2023-03-29T22:03:37.773Z,-7.16
2023-03-29T22:06:10.639Z,-7.23
2023-03-29T22:08:39.114Z,-7.30
2023-03-29T22:11:11.050Z,-7.35
2023-03-29T22:13:40.507Z,-7.45
2023-03-29T22:16:13.894Z,-7.57
2023-03-29T22:18:42.488Z,-7.71
2023-03-29T22:21:17.672Z,-7.85
2023-03-29T22:23:48.524Z,-7.99
2023-03-29T22:26:19.077Z,-8.13
2023-03-29T22:28:47.912Z,-8.29
2023-03-29T22:31:18.481Z,-8.39
2023-03-29T22:33:46.753Z,-8.46
2023-03-29T22:36:23.707Z,-8.51
2023-03-29T22:38:52.721Z,-8.50
2023-03-29T22:41:26.199Z,-8.48
2023-03-29T22:43:56.523Z,-8.44
2023-03-29T22:46:25.443Z,-8.46
2023-03-29T22:48:53.783Z,-8.46
2023-03-29T22:51:22.022Z,-8.44
2023-03-29T22:53:50.277Z,-8.40
2023-03-29T22:56:18.741Z,-8.38
2023-03-29T22:58:46.947Z,-8.35
2023-03-29T23:01:15.158Z,-8.31
2023-03-29T23:03:43.355Z,-8.24
2023-03-29T23:06:11.779Z,-8.19
2023-03-29T23:08:39.943Z,-8.16
2023-03-29T23:11:08.216Z,-8.13
2023-03-29T23:13:36.501Z,-8.11
2023-03-29T23:16:05.087Z,-8.07
2023-03-29T23:18:37.930Z,-8.11
2023-03-29T23:21:07.741Z,-8.19
2023-03-29T23:23:36.993Z,-8.29
2023-03-29T23:26:06.247Z,-8.39
2023-03-29T23:28:34.850Z,-8.51
2023-03-29T23:31:10.060Z,-8.63
2023-03-29T23:33:43.102Z,-8.76
2023-03-29T23:36:17.012Z,-8.88
2023-03-29T23:38:46.978Z,-9.01
2023-03-29T23:41:16.857Z,-9.12
2023-03-29T23:43:47.182Z,-9.18
2023-03-29T23:46:19.027Z,-9.20
2023-03-29T23:48:49.353Z,-9.22
2023-03-29T23:51:23.026Z,-9.24
2023-03-29T23:53:51.817Z,-9.23
2023-03-29T23:56:21.579Z,-9.17
2023-03-29T23:58:50.142Z,-9.11
